createdAt,value
2016-02-16T00:00:55.824Z,99.99
2016-02-16T00:01:55.780Z,99.99
2016-02-16T00:02:55.767Z,99.99
2016-02-16T00:03:55.723Z,99.99
2016-02-16T00:04:55.695Z,99.99
2016-02-16T00:05:55.666Z,99.99
2016-02-16T00:06:55.638Z,99.99
2016-02-16T00:07:55.593Z,99.99
2016-02-16T00:08:55.565Z,99.99
2016-02-16T00:09:55.536Z,99.99
2016-02-16T00:10:55.508Z,99.99
2016-02-16T00:11:55.479Z,99.99
2016-02-16T00:12:55.451Z,99.99
2016-02-16T00:13:55.406Z,99.99
2016-02-16T00:14:55.377Z,99.99
2016-02-16T00:15:55.349Z,99.99
2016-02-16T00:16:55.321Z,99.99
2016-02-16T00:17:55.276Z,99.99
2016-02-16T00:18:55.248Z,99.99
2016-02-16T00:19:55.219Z,99.99
2016-02-16T00:20:55.191Z,99.99
2016-02-16T00:21:55.162Z,99.99
2016-02-16T00:22:55.134Z,99.99
2016-02-16T00:23:55.090Z,99.99
2016-02-16T00:24:55.061Z,99.99
2016-02-16T00:25:55.032Z,99.99
2016-02-16T00:26:55.004Z,99.99
2016-02-16T00:27:54.975Z,99.99
2016-02-16T00:28:54.947Z,99.99
2016-02-16T00:29:54.903Z,99.99
2016-02-16T00:30:54.874Z,99.99
2016-02-16T00:31:54.845Z,99.99
2016-02-16T00:32:54.816Z,99.99
2016-02-16T00:33:54.789Z,99.99
2016-02-16T00:34:54.744Z,99.99
2016-02-16T00:35:54.716Z,99.99
2016-02-16T00:36:54.686Z,99.99
2016-02-16T00:37:54.658Z,99.99
2016-02-16T00:38:54.630Z,99.99
2016-02-16T00:39:54.602Z,99.99
2016-02-16T00:40:54.572Z,99.99
2016-02-16T00:41:54.529Z,99.99
2016-02-16T00:42:54.500Z,99.99
2016-02-16T00:43:54.472Z,99.99
2016-02-16T00:44:54.427Z,99.99
2016-02-16T00:45:54.415Z,99.99
2016-02-16T00:46:54.370Z,99.99
2016-02-16T00:47:54.341Z,99.99
2016-02-16T00:48:54.313Z,99.99
2016-02-16T00:49:54.284Z,99.99
2016-02-16T00:50:54.240Z,99.99
2016-02-16T00:51:54.212Z,99.99
2016-02-16T00:52:54.183Z,99.99
2016-02-16T00:53:54.154Z,99.99
2016-02-16T00:54:54.126Z,99.99
2016-02-16T00:55:54.097Z,99.99
2016-02-16T00:56:54.054Z,99.99
2016-02-16T00:57:54.025Z,99.99
2016-02-16T00:58:53.995Z,99.99
2016-02-16T00:59:53.967Z,99.99
2016-02-16T01:00:53.923Z,99.99
2016-02-16T01:01:53.895Z,99.99
2016-02-16T01:02:53.867Z,99.99
2016-02-16T01:03:53.838Z,99.99
2016-02-16T01:04:53.809Z,99.99
2016-02-16T01:05:53.764Z,99.99
2016-02-16T01:06:53.736Z,99.99
2016-02-16T01:07:53.708Z,99.99
2016-02-16T01:08:53.680Z,99.99
2016-02-16T01:09:53.650Z,99.99
2016-02-16T01:10:53.621Z,99.99
2016-02-16T01:11:53.577Z,99.99
2016-02-16T01:12:53.549Z,99.99
2016-02-16T01:13:53.521Z,99.99
2016-02-16T01:14:53.493Z,99.99
2016-02-16T01:15:53.463Z,99.99
2016-02-16T01:16:53.419Z,99.99
2016-02-16T01:17:53.406Z,99.99
2016-02-16T01:18:53.362Z,99.99
2016-02-16T01:19:53.335Z,99.99
2016-02-16T01:20:53.305Z,99.99
2016-02-16T01:21:53.261Z,99.99
2016-02-16T01:22:53.232Z,99.99
2016-02-16T01:23:53.203Z,99.99
2016-02-16T01:24:53.176Z,99.99
2016-02-16T01:25:53.148Z,99.99
2016-02-16T01:26:53.118Z,99.99
2016-02-16T01:27:53.074Z,99.99
2016-02-16T01:28:53.045Z,99.99
2016-02-16T01:29:53.017Z,99.99
2016-02-16T01:30:52.989Z,99.99
2016-02-16T01:31:52.960Z,99.99
2016-02-16T01:32:52.916Z,99.99
2016-02-16T01:33:52.887Z,99.99
2016-02-16T01:34:52.858Z,99.99
2016-02-16T01:35:52.830Z,99.99
2016-02-16T01:36:52.801Z,99.99
2016-02-16T01:37:52.773Z,99.99
2016-02-16T01:38:52.728Z,99.99
2016-02-16T01:39:52.700Z,99.99
2016-02-16T01:40:52.671Z,99.99
2016-02-16T01:41:52.643Z,99.99
2016-02-16T01:42:52.614Z,99.99
2016-02-16T01:43:52.586Z,99.99
2016-02-16T01:44:52.542Z,99.99
2016-02-16T01:45:52.513Z,99.99
2016-02-16T01:46:52.484Z,99.99
2016-02-16T01:47:52.457Z,99.99
2016-02-16T01:48:52.412Z,99.99
2016-02-16T01:49:52.383Z,99.99
2016-02-16T01:50:52.355Z,99.99
2016-02-16T01:51:52.326Z,99.99
2016-02-16T01:52:52.298Z,99.99
2016-02-16T01:53:52.269Z,99.99
2016-02-16T01:54:52.240Z,99.99
2016-02-16T01:55:52.196Z,99.8
2016-02-16T01:56:52.168Z,99.8
2016-02-16T01:57:52.139Z,99.62
2016-02-16T01:58:52.111Z,99.71
2016-02-16T01:59:52.081Z,99.99
2016-02-16T02:00:52.053Z,99.99
2016-02-16T02:01:52.009Z,99.8
2016-02-16T02:02:51.981Z,99.99
2016-02-16T02:03:51.952Z,99.99
2016-02-16T02:04:51.924Z,99.99
2016-02-16T02:05:51.881Z,99.99
2016-02-16T02:06:51.852Z,99.99
2016-02-16T02:07:51.823Z,99.99
2016-02-16T02:08:51.810Z,99.99
2016-02-16T02:09:51.766Z,99.99
2016-02-16T02:10:51.738Z,99.99
2016-02-16T02:11:51.693Z,99.99
2016-02-16T02:12:51.665Z,99.99
2016-02-16T02:13:51.636Z,99.99
2016-02-16T02:14:51.608Z,99.99
2016-02-16T02:15:51.579Z,99.99
2016-02-16T02:16:51.550Z,99.99
2016-02-16T02:17:51.506Z,99.99
2016-02-16T02:18:51.478Z,99.99
2016-02-16T02:19:51.449Z,99.99
2016-02-16T02:20:51.421Z,99.9
2016-02-16T02:21:51.392Z,99.99
2016-02-16T02:22:51.363Z,99.9
2016-02-16T02:23:51.320Z,99.99
2016-02-16T02:24:51.291Z,99.99
2016-02-16T02:25:51.262Z,99.62
2016-02-16T02:26:51.233Z,99.9
2016-02-16T02:27:51.190Z,99.99
2016-02-16T02:28:51.161Z,99.33
2016-02-16T02:29:51.133Z,99.24
2016-02-16T02:30:51.104Z,99.05
2016-02-16T02:31:51.075Z,99.15
2016-02-16T02:32:51.031Z,98.77
2016-02-16T02:33:51.003Z,99.52
2016-02-16T02:34:50.974Z,98.86
2016-02-16T02:35:50.946Z,98.96
2016-02-16T02:36:50.917Z,99.52
2016-02-16T02:37:50.888Z,99.43
2016-02-16T02:38:50.844Z,99.43
2016-02-16T02:39:50.816Z,98.77
2016-02-16T02:40:50.787Z,98.77
2016-02-16T02:41:50.759Z,99.33
2016-02-16T02:42:50.730Z,99.62
2016-02-16T02:43:50.686Z,99.05
2016-02-16T02:44:50.656Z,98.86
2016-02-16T02:45:50.628Z,99.62
2016-02-16T02:46:50.601Z,99.15
2016-02-16T02:47:50.556Z,98.9
2016-02-16T02:48:50.527Z,98.81
2016-02-16T02:49:50.499Z,99.09
2016-02-16T02:50:50.469Z,98.81
2016-02-16T02:51:50.426Z,99.28
2016-02-16T02:52:50.398Z,98.71
2016-02-16T02:53:50.369Z,99.19
2016-02-16T02:54:50.340Z,98.81
2016-02-16T02:55:50.311Z,99
2016-02-16T02:56:50.268Z,98.81
2016-02-16T02:57:50.239Z,99
2016-02-16T02:58:50.211Z,99.09
2016-02-16T02:59:50.166Z,99.28
2016-02-16T03:00:50.138Z,99.57
2016-02-16T03:01:50.109Z,99.57
2016-02-16T03:02:50.080Z,99.38
2016-02-16T03:03:50.037Z,99.38
2016-02-16T03:04:50.014Z,99.47
2016-02-16T03:05:49.985Z,99.57
2016-02-16T03:06:49.941Z,99
2016-02-16T03:07:49.912Z,99.09
2016-02-16T03:08:49.885Z,99.38
2016-02-16T03:09:49.855Z,99.47
2016-02-16T03:10:49.811Z,99.57
2016-02-16T03:11:49.782Z,99.19
2016-02-16T03:12:49.754Z,99.57
2016-02-16T03:13:49.726Z,99.38
2016-02-16T03:14:49.682Z,99.47
2016-02-16T03:15:49.653Z,99.19
2016-02-16T03:16:49.624Z,99.76
2016-02-16T03:17:49.579Z,99.66
2016-02-16T03:18:49.551Z,99.95
2016-02-16T03:19:49.523Z,99.66
2016-02-16T03:20:49.495Z,99.95
2016-02-16T03:21:49.466Z,99.85
2016-02-16T03:22:49.422Z,99.99
2016-02-16T03:23:49.392Z,99.99
2016-02-16T03:24:49.364Z,99.99
2016-02-16T03:25:49.336Z,99.99
2016-02-16T03:26:49.292Z,99.99
2016-02-16T03:27:49.279Z,99.99
2016-02-16T03:28:49.234Z,99.99
2016-02-16T03:29:49.205Z,99.99
2016-02-16T03:30:49.161Z,99.99
2016-02-16T03:31:49.133Z,99.99
2016-02-16T03:32:49.105Z,99.99
2016-02-16T03:33:49.077Z,99.99
2016-02-16T03:34:49.032Z,99.99
2016-02-16T03:35:49.003Z,99.99
2016-02-16T03:36:48.974Z,99.99
2016-02-16T03:37:48.947Z,99.99
2016-02-16T03:38:48.902Z,99.95
2016-02-16T03:39:48.874Z,99.99
2016-02-16T03:40:48.845Z,99.99
2016-02-16T03:41:48.816Z,99.95
2016-02-16T03:42:48.771Z,99.66
2016-02-16T03:43:48.743Z,99.85
2016-02-16T03:44:48.715Z,99.99
2016-02-16T03:45:48.687Z,99.57
2016-02-16T03:46:48.657Z,99.38
2016-02-16T03:47:48.614Z,99.19
2016-02-16T03:48:48.584Z,99
2016-02-16T03:49:48.557Z,98.81
2016-02-16T03:50:48.529Z,99.28
2016-02-16T03:51:48.484Z,98.62
2016-02-16T03:52:48.455Z,99.47
2016-02-16T03:53:48.426Z,99.38
2016-02-16T03:54:48.398Z,99
2016-02-16T03:55:48.354Z,99
2016-02-16T03:56:48.326Z,97.96
2016-02-16T03:57:48.297Z,99.38
2016-02-16T03:58:48.268Z,99.28
2016-02-16T03:59:48.224Z,99.09
2016-02-16T04:00:48.195Z,99.38
2016-02-16T04:01:48.167Z,99.19
2016-02-16T04:02:48.139Z,99.38
2016-02-16T04:03:48.094Z,99.28
2016-02-16T04:04:48.066Z,99.47
2016-02-16T04:05:48.037Z,98.81
2016-02-16T04:06:48.008Z,98.71
2016-02-16T04:07:47.964Z,99.38
2016-02-16T04:08:47.951Z,99.28
2016-02-16T04:09:47.907Z,99.66
2016-02-16T04:10:47.879Z,99.47
2016-02-16T04:11:47.835Z,99.66
2016-02-16T04:12:47.807Z,99.09
2016-02-16T04:13:47.777Z,99.38
2016-02-16T04:14:47.732Z,99.09
2016-02-16T04:15:47.705Z,98.9
2016-02-16T04:16:47.676Z,99.09
2016-02-16T04:17:47.648Z,99.28
2016-02-16T04:18:47.619Z,99.09
2016-02-16T04:19:47.575Z,99.47
2016-02-16T04:20:47.546Z,99.57
2016-02-16T04:21:47.518Z,99.57
2016-02-16T04:22:47.474Z,99.47
2016-02-16T04:23:47.445Z,99.47
2016-02-16T04:24:47.416Z,99.57
2016-02-16T04:25:47.388Z,99.28
2016-02-16T04:26:47.344Z,99.28
2016-02-16T04:27:47.315Z,99.28
2016-02-16T04:28:47.287Z,99.09
2016-02-16T04:29:47.258Z,99.19
2016-02-16T04:30:47.211Z,99.09
2016-02-16T04:31:47.171Z,98.81
2016-02-16T04:32:47.128Z,98.62
2016-02-16T04:33:47.071Z,99.09
2016-02-16T04:34:47.029Z,98.71
2016-02-16T04:35:46.989Z,98.9
2016-02-16T04:36:46.956Z,98.81
2016-02-16T04:37:46.907Z,99.09
2016-02-16T04:38:46.873Z,99.38
2016-02-16T04:39:46.839Z,99
2016-02-16T04:40:46.807Z,98.81
2016-02-16T04:41:46.761Z,99.28
2016-02-16T04:42:46.731Z,99.38
2016-02-16T04:43:46.701Z,98.71
2016-02-16T04:44:46.654Z,98.52
2016-02-16T04:45:46.626Z,98.62
2016-02-16T04:46:46.595Z,99.09
2016-02-16T04:47:46.566Z,99.66
2016-02-16T04:48:46.521Z,99.47
2016-02-16T04:49:46.492Z,98.81
2016-02-16T04:50:46.463Z,99.38
2016-02-16T04:51:46.419Z,99.38
2016-02-16T04:52:46.391Z,99.38
2016-02-16T04:53:46.361Z,98.85
2016-02-16T04:54:46.332Z,99.76
2016-02-16T04:55:46.288Z,99.47
2016-02-16T04:56:46.260Z,99.38
2016-02-16T04:57:46.231Z,99
2016-02-16T04:58:46.187Z,99.33
2016-02-16T04:59:46.159Z,99.14
2016-02-16T05:00:46.130Z,99.23
2016-02-16T05:01:46.101Z,98.66
2016-02-16T05:02:46.057Z,99.33
2016-02-16T05:03:46.029Z,99.61
2016-02-16T05:04:46.001Z,99.42
2016-02-16T05:05:45.957Z,99.23
2016-02-16T05:06:45.928Z,99.14
2016-02-16T05:07:45.898Z,99.71
2016-02-16T05:08:45.856Z,99.14
2016-02-16T05:09:45.826Z,99.14
2016-02-16T05:10:45.798Z,99.42
2016-02-16T05:11:45.769Z,99.14
2016-02-16T05:12:45.741Z,99.23
2016-02-16T05:13:45.712Z,99.14
2016-02-16T05:14:45.668Z,99.14
2016-02-16T05:15:45.624Z,99.04
2016-02-16T05:16:45.595Z,99.04
2016-02-16T05:17:45.567Z,98.57
2016-02-16T05:18:45.538Z,98.66
2016-02-16T05:19:45.494Z,98.95
2016-02-16T05:20:45.465Z,99.23
2016-02-16T05:21:45.436Z,98.85
2016-02-16T05:22:45.393Z,98.85
2016-02-16T05:23:45.364Z,99.52
2016-02-16T05:24:45.336Z,98.95
2016-02-16T05:25:45.307Z,98.57
2016-02-16T05:26:45.263Z,98.95
2016-02-16T05:27:45.235Z,98.76
2016-02-16T05:28:45.205Z,99.04
2016-02-16T05:29:45.162Z,98.95
2016-02-16T05:30:45.133Z,99.33
2016-02-16T05:31:45.105Z,99.52
2016-02-16T05:32:45.076Z,99.89
2016-02-16T05:33:45.031Z,99.61
2016-02-16T05:34:45.003Z,99.8
2016-02-16T05:35:44.974Z,99.8
2016-02-16T05:36:44.931Z,99.71
2016-02-16T05:37:44.902Z,99.52
2016-02-16T05:38:44.873Z,99.71
2016-02-16T05:39:44.828Z,99.71
2016-02-16T05:40:44.801Z,99.89
2016-02-16T05:41:44.772Z,99.99
2016-02-16T05:42:44.727Z,99.33
2016-02-16T05:43:44.699Z,99.71
2016-02-16T05:44:44.670Z,99.99
2016-02-16T05:45:44.626Z,99.52
2016-02-16T05:46:44.598Z,99.8
2016-02-16T05:47:44.570Z,99.61
2016-02-16T05:48:44.541Z,99.61
2016-02-16T05:49:44.496Z,99.52
2016-02-16T05:50:44.468Z,99.61
2016-02-16T05:51:44.439Z,99.8
2016-02-16T05:52:44.395Z,99.52
2016-02-16T05:53:44.366Z,99.89
2016-02-16T05:54:44.338Z,99.89
2016-02-16T05:55:44.294Z,99.61
2016-02-16T05:56:44.265Z,99.42
2016-02-16T05:57:44.238Z,99.14
2016-02-16T05:58:44.193Z,99.14
2016-02-16T05:59:44.163Z,99.23
2016-02-16T06:00:44.136Z,98.95
2016-02-16T06:01:44.107Z,98.95
2016-02-16T06:02:44.063Z,99.14
2016-02-16T06:03:44.034Z,98.76
2016-02-16T06:04:44.006Z,99.23
2016-02-16T06:05:43.963Z,98.95
2016-02-16T06:06:43.933Z,99.14
2016-02-16T06:07:43.905Z,99.14
2016-02-16T06:08:43.877Z,99.42
2016-02-16T06:09:43.832Z,99.33
2016-02-16T06:10:43.804Z,99.14
2016-02-16T06:11:43.760Z,99.52
2016-02-16T06:12:43.731Z,99.61
2016-02-16T06:13:43.718Z,99.52
2016-02-16T06:14:43.658Z,99.61
2016-02-16T06:15:43.630Z,99.52
2016-02-16T06:16:43.601Z,99.61
2016-02-16T06:17:43.573Z,99.42
2016-02-16T06:18:43.529Z,99.89
2016-02-16T06:19:43.500Z,99.61
2016-02-16T06:20:43.471Z,99.8
2016-02-16T06:21:43.426Z,99.99
2016-02-16T06:22:43.399Z,99.8
2016-02-16T06:23:43.370Z,99.89
2016-02-16T06:24:43.326Z,99.61
2016-02-16T06:25:43.297Z,99.89
2016-02-16T06:26:43.269Z,99.61
2016-02-16T06:27:43.240Z,99.42
2016-02-16T06:28:43.195Z,99.52
2016-02-16T06:29:43.167Z,99.52
2016-02-16T06:30:43.123Z,99.23
2016-02-16T06:31:43.094Z,99.23
2016-02-16T06:32:43.067Z,99.14
2016-02-16T06:33:43.022Z,99.04
2016-02-16T06:34:42.994Z,99.23
2016-02-16T06:35:42.965Z,99.04
2016-02-16T06:36:42.937Z,99.14
2016-02-16T06:37:42.891Z,99.14
2016-02-16T06:38:42.864Z,98.95
2016-02-16T06:39:42.819Z,99.42
2016-02-16T06:40:42.791Z,99.52
2016-02-16T06:41:42.762Z,99.52
2016-02-16T06:42:42.733Z,99.89
2016-02-16T06:43:42.690Z,99.8
2016-02-16T06:44:42.660Z,99.8
2016-02-16T06:45:42.632Z,99.99
2016-02-16T06:46:42.588Z,99.8
2016-02-16T06:47:42.559Z,99.99
2016-02-16T06:48:42.532Z,99.89
2016-02-16T06:49:42.487Z,99.42
2016-02-16T06:50:42.459Z,99.61
2016-02-16T06:51:42.429Z,99.42
2016-02-16T06:52:42.385Z,99.89
2016-02-16T06:53:42.357Z,99.99
2016-02-16T06:54:42.329Z,99.89
2016-02-16T06:55:42.285Z,99.71
2016-02-16T06:56:42.256Z,99.89
2016-02-16T06:57:42.228Z,99.99
2016-02-16T06:58:42.183Z,99.8
2016-02-16T06:59:42.170Z,99.89
2016-02-16T07:00:42.126Z,99.99
2016-02-16T07:01:42.097Z,99.99
2016-02-16T07:02:42.069Z,99.99
2016-02-16T07:03:42.025Z,99.99
2016-02-16T07:04:41.996Z,99.99
2016-02-16T07:05:41.952Z,99.99
2016-02-16T07:06:41.923Z,99.99
2016-02-16T07:07:41.894Z,99.99
2016-02-16T07:08:41.866Z,99.99
2016-02-16T07:09:41.822Z,99.99
2016-02-16T07:10:41.794Z,99.99
2016-02-16T07:11:41.765Z,99.99
2016-02-16T07:12:41.721Z,99.99
2016-02-16T07:13:41.692Z,99.99
2016-02-16T07:14:41.663Z,99.99
2016-02-16T07:15:41.619Z,99.99
2016-02-16T07:16:41.591Z,99.99
2016-02-16T07:17:41.562Z,99.8
2016-02-16T07:18:41.518Z,99.89
2016-02-16T07:19:41.490Z,99.8
2016-02-16T07:20:41.460Z,99.99
2016-02-16T07:21:41.432Z,99.99
2016-02-16T07:22:41.387Z,99.99
2016-02-16T07:23:41.360Z,99.99
2016-02-16T07:24:41.331Z,99.99
2016-02-16T07:25:41.284Z,99.99
2016-02-16T07:26:41.256Z,99.99
2016-02-16T07:27:41.227Z,99.99
2016-02-16T07:28:41.184Z,99.99
2016-02-16T07:29:41.154Z,99.99
2016-02-16T07:30:41.126Z,99.99
2016-02-16T07:31:41.082Z,99.99
2016-02-16T07:32:41.053Z,99.99
2016-02-16T07:33:41.025Z,99.99
2016-02-16T07:34:40.995Z,99.99
2016-02-16T07:35:40.952Z,99.99
2016-02-16T07:36:40.923Z,99.99
2016-02-16T07:37:40.894Z,99.99
2016-02-16T07:38:40.866Z,99.99
2016-02-16T07:39:40.822Z,99.99
2016-02-16T07:40:40.794Z,99.99
2016-02-16T07:41:40.764Z,99.99
2016-02-16T07:42:40.721Z,99.99
2016-02-16T07:43:40.691Z,99.99
2016-02-16T07:44:40.664Z,99.99
2016-02-16T07:45:40.619Z,99.99
2016-02-16T07:46:40.591Z,99.99
2016-02-16T07:47:40.562Z,99.99
2016-02-16T07:48:40.533Z,99.99
2016-02-16T07:49:40.490Z,99.99
2016-02-16T07:50:40.461Z,99.99
2016-02-16T07:51:40.432Z,99.99
2016-02-16T07:52:40.404Z,99.99
2016-02-16T07:53:40.360Z,99.99
2016-02-16T07:54:40.331Z,99.99
2016-02-16T07:55:40.318Z,99.99
2016-02-16T07:56:40.259Z,99.99
2016-02-16T07:57:40.229Z,99.99
2016-02-16T07:58:40.201Z,99.99
2016-02-16T07:59:40.173Z,99.99
2016-02-16T08:00:40.128Z,99.99
2016-02-16T08:01:40.100Z,99.99
2016-02-16T08:02:40.071Z,99.99
2016-02-16T08:03:40.042Z,99.99
2016-02-16T08:04:40.015Z,99.99
2016-02-16T08:05:39.970Z,99.99
2016-02-16T08:06:39.942Z,99.99
2016-02-16T08:07:39.913Z,99.99
2016-02-16T08:08:39.869Z,99.99
2016-02-16T08:09:39.839Z,99.99
2016-02-16T08:10:39.812Z,99.99
2016-02-16T08:11:39.783Z,99.99
2016-02-16T08:12:39.739Z,99.99
2016-02-16T08:13:39.711Z,99.99
2016-02-16T08:14:39.683Z,99.99
2016-02-16T08:15:39.653Z,99.99
2016-02-16T08:16:39.608Z,99.99
2016-02-16T08:17:39.580Z,99.99
2016-02-16T08:18:39.552Z,99.99
2016-02-16T08:19:39.524Z,99.99
2016-02-16T08:20:39.479Z,99.99
2016-02-16T08:21:39.466Z,99.99
2016-02-16T08:22:39.437Z,99.99
2016-02-16T08:23:39.393Z,99.99
2016-02-16T08:24:39.349Z,99.99
2016-02-16T08:25:39.321Z,99.99
2016-02-16T08:26:39.292Z,99.99
2016-02-16T08:27:39.248Z,99.99
2016-02-16T08:28:39.235Z,99.99
2016-02-16T08:29:39.207Z,99.99
2016-02-16T08:30:39.162Z,99.99
2016-02-16T08:31:39.134Z,99.99
2016-02-16T08:32:39.089Z,99.99
2016-02-16T08:33:39.061Z,99.99
2016-02-16T08:34:39.032Z,99.99
2016-02-16T08:35:39.003Z,99.99
2016-02-16T08:36:38.959Z,99.99
2016-02-16T08:37:38.931Z,99.99
2016-02-16T08:38:38.903Z,99.99
2016-02-16T08:39:38.874Z,99.99
2016-02-16T08:40:38.830Z,99.99
2016-02-16T08:41:38.801Z,99.99
2016-02-16T08:42:38.772Z,99.99
2016-02-16T08:43:38.744Z,99.99
2016-02-16T08:44:38.700Z,99.99
2016-02-16T08:45:38.671Z,99.99
2016-02-16T08:46:38.644Z,99.99
2016-02-16T08:47:38.614Z,99.99
2016-02-16T08:48:38.586Z,99.99
2016-02-16T08:49:38.542Z,99.99
2016-02-16T08:50:38.513Z,99.99
2016-02-16T08:51:38.499Z,99.99
2016-02-16T08:52:38.455Z,99.99
2016-02-16T08:53:38.412Z,99.99
2016-02-16T08:54:38.383Z,99.99
2016-02-16T08:55:38.370Z,99.99
2016-02-16T08:56:38.326Z,99.99
2016-02-16T08:57:38.298Z,99.99
2016-02-16T08:58:38.253Z,99.99
2016-02-16T08:59:38.225Z,99.99
2016-02-16T09:00:38.196Z,99.99
2016-02-16T09:01:38.168Z,99.99
2016-02-16T09:02:38.123Z,99.99
2016-02-16T09:03:38.095Z,99.99
2016-02-16T09:04:38.066Z,99.99
2016-02-16T09:05:38.037Z,99.99
2016-02-16T09:06:38.009Z,99.99
2016-02-16T09:07:37.981Z,99.99
2016-02-16T09:08:37.936Z,99.99
2016-02-16T09:09:37.908Z,99.99
2016-02-16T09:10:37.879Z,99.99
2016-02-16T09:11:37.851Z,99.99
2016-02-16T09:12:37.806Z,99.99
2016-02-16T09:13:37.841Z,99.99
2016-02-16T09:14:37.750Z,99.99
2016-02-16T09:15:37.721Z,99.99
2016-02-16T09:16:37.692Z,99.99
2016-02-16T09:17:37.647Z,99.99
2016-02-16T09:18:37.619Z,99.99
2016-02-16T09:19:37.591Z,99.99
2016-02-16T09:20:37.562Z,99.99
2016-02-16T09:21:37.534Z,99.99
2016-02-16T09:22:37.505Z,99.99
2016-02-16T09:23:37.461Z,99.99
2016-02-16T09:24:37.433Z,99.99
2016-02-16T09:25:37.404Z,99.8
2016-02-16T09:26:37.376Z,99.8
2016-02-16T09:27:37.394Z,99.99
2016-02-16T09:28:37.302Z,99.99
2016-02-16T09:29:37.274Z,99.99
2016-02-16T09:30:37.262Z,99.99
2016-02-16T09:31:37.217Z,99.99
2016-02-16T09:32:37.188Z,99.99
2016-02-16T09:33:37.160Z,99.99
2016-02-16T09:34:37.116Z,99.99
2016-02-16T09:35:37.087Z,99.99
2016-02-16T09:36:37.059Z,99.99
2016-02-16T09:37:37.031Z,99.99
2016-02-16T09:38:37.002Z,99.99
2016-02-16T09:39:36.957Z,99.99
2016-02-16T09:40:36.929Z,99.99
2016-02-16T09:41:36.900Z,99.99
2016-02-16T09:42:36.872Z,99.99
2016-02-16T09:43:36.843Z,99.99
2016-02-16T09:44:36.815Z,99.99
2016-02-16T09:45:36.770Z,99.99
2016-02-16T09:46:36.742Z,99.99
2016-02-16T09:47:36.713Z,99.99
2016-02-16T09:48:36.685Z,99.99
2016-02-16T09:49:36.655Z,99.99
2016-02-16T09:50:36.628Z,99.99
2016-02-16T09:51:36.600Z,99.99
2016-02-16T09:52:36.555Z,99.99
2016-02-16T09:53:36.527Z,99.99
2016-02-16T09:54:36.497Z,99.99
2016-02-16T09:55:36.469Z,99.99
2016-02-16T09:56:36.440Z,99.99
2016-02-16T09:57:36.412Z,99.99
2016-02-16T09:58:36.368Z,99.99
2016-02-16T09:59:36.340Z,99.99
2016-02-16T10:00:36.311Z,99.99
2016-02-16T10:01:36.282Z,99.99
2016-02-16T10:02:36.254Z,99.99
2016-02-16T10:03:36.225Z,99.99
2016-02-16T10:04:36.196Z,99.99
2016-02-16T10:05:36.152Z,99.99
2016-02-16T10:06:36.124Z,99.99
2016-02-16T10:07:36.095Z,99.99
2016-02-16T10:08:36.067Z,99.99
2016-02-16T10:09:36.037Z,99.99
2016-02-16T10:10:36.009Z,99.99
2016-02-16T10:11:35.981Z,99.99
2016-02-16T10:12:35.936Z,99.99
2016-02-16T10:13:35.909Z,99.99
2016-02-16T10:14:35.881Z,99.99
2016-02-16T10:15:35.851Z,99.99
2016-02-16T10:16:35.823Z,99.99
2016-02-16T10:17:35.794Z,99.99
2016-02-16T10:18:35.766Z,99.99
2016-02-16T10:19:35.737Z,99.99
2016-02-16T10:20:35.709Z,99.99
2016-02-16T10:21:35.664Z,99.99
2016-02-16T10:22:35.636Z,99.99
2016-02-16T10:23:35.716Z,99.99
2016-02-16T10:24:35.578Z,99.99
2016-02-16T10:25:35.549Z,99.99
2016-02-16T10:26:35.521Z,99.99
2016-02-16T10:27:35.493Z,99.99
2016-02-16T10:28:35.464Z,99.99
2016-02-16T10:29:35.639Z,99.99
2016-02-16T10:30:35.391Z,99.99
2016-02-16T10:31:35.363Z,99.99
2016-02-16T10:32:35.334Z,99.99
2016-02-16T10:33:35.321Z,99.99
2016-02-16T10:34:35.276Z,99.76
2016-02-16T10:35:35.249Z,99.66
2016-02-16T10:36:35.221Z,99.99
2016-02-16T10:37:35.192Z,99.99
2016-02-16T10:38:35.162Z,99.85
2016-02-16T10:39:35.181Z,99.85
2016-02-16T10:40:35.090Z,99.99
2016-02-16T10:41:35.061Z,99.99
2016-02-16T10:42:35.033Z,99.99
2016-02-16T10:43:35.020Z,99.99
2016-02-16T10:44:34.976Z,99.95
2016-02-16T10:45:34.948Z,99.95
2016-02-16T10:46:34.919Z,99.85
2016-02-16T10:47:34.999Z,99.76
2016-02-16T10:48:34.862Z,99.85
2016-02-16T10:49:34.818Z,99.85
2016-02-16T10:50:34.789Z,99.95
2016-02-16T10:51:34.761Z,99.99
2016-02-16T10:52:34.732Z,99.99
2016-02-16T10:53:34.703Z,99.48
2016-02-16T10:54:34.674Z,99.99
2016-02-16T10:55:34.661Z,99.99
2016-02-16T10:56:34.634Z,99.99
2016-02-16T10:57:34.589Z,99.99
2016-02-16T10:58:34.561Z,99.99
2016-02-16T10:59:34.516Z,99.99
2016-02-16T11:00:34.504Z,99.99
2016-02-16T11:01:34.474Z,99.99
2016-02-16T11:02:34.431Z,99.99
2016-02-16T11:03:34.402Z,99.99
2016-02-16T11:04:34.374Z,99.9
2016-02-16T11:05:34.345Z,99.99
2016-02-16T11:06:34.316Z,99.99
2016-02-16T11:07:34.287Z,99.99
2016-02-16T11:08:34.260Z,99.99
2016-02-16T11:09:34.231Z,99.81
2016-02-16T11:10:34.202Z,99.9
2016-02-16T11:11:34.159Z,99.71
2016-02-16T11:12:34.129Z,99.81
2016-02-16T11:13:34.117Z,99.99
2016-02-16T11:14:34.072Z,99.99
2016-02-16T11:15:34.044Z,99.62
2016-02-16T11:16:34.014Z,99.99
2016-02-16T11:17:33.987Z,99.99
2016-02-16T11:18:33.959Z,99.99
2016-02-16T11:19:33.930Z,99.99
2016-02-16T11:20:33.901Z,99.99
2016-02-16T11:21:33.872Z,99.62
2016-02-16T11:22:33.844Z,99.99
2016-02-16T11:23:33.800Z,99.99
2016-02-16T11:24:33.787Z,99.9
2016-02-16T11:25:33.742Z,99.62
2016-02-16T11:26:33.730Z,99.62
2016-02-16T11:27:33.686Z,99.99
2016-02-16T11:28:33.662Z,99.9
2016-02-16T11:29:33.633Z,99.99
2016-02-16T11:30:33.620Z,99.9
2016-02-16T11:31:33.591Z,99.81
2016-02-16T11:32:33.563Z,99.99
2016-02-16T11:33:33.503Z,99.62
2016-02-16T11:34:33.490Z,99.81
2016-02-16T11:35:33.462Z,99.9
2016-02-16T11:36:33.433Z,99.99
2016-02-16T11:37:33.389Z,99.33
2016-02-16T11:38:33.360Z,99.33
2016-02-16T11:39:33.332Z,99.33
2016-02-16T11:40:33.304Z,99.62
2016-02-16T11:41:33.275Z,99.43
2016-02-16T11:42:33.246Z,99.99
2016-02-16T11:43:33.545Z,99.81
2016-02-16T11:44:33.439Z,99.9
2016-02-16T11:45:33.333Z,99.99
2016-02-16T11:46:33.507Z,99.9
2016-02-16T11:47:33.134Z,99.99
2016-02-16T11:48:33.075Z,99.9
2016-02-16T11:49:33.046Z,99.71
2016-02-16T11:50:33.002Z,99.99
2016-02-16T11:51:32.974Z,99.86
2016-02-16T11:52:32.945Z,99.99
2016-02-16T11:53:32.932Z,99.9
2016-02-16T11:54:32.888Z,99.9
2016-02-16T11:55:32.985Z,99.99
2016-02-16T11:56:32.830Z,99.99
2016-02-16T11:57:32.802Z,99.99
2016-02-16T11:58:32.774Z,99.99
2016-02-16T11:59:32.746Z,99.99
2016-02-16T12:00:32.716Z,99.99
2016-02-16T12:01:32.688Z,99.99
2016-02-16T12:02:32.659Z,99.96
2016-02-16T12:03:32.632Z,99.99
2016-02-16T12:04:32.602Z,99.67
2016-02-16T12:05:32.569Z,99.99
2016-02-16T12:06:32.551Z,99.99
2016-02-16T12:07:32.507Z,99.67
2016-02-16T12:08:32.478Z,99.99
2016-02-16T12:09:32.449Z,99.86
2016-02-16T12:10:32.421Z,99.67
2016-02-16T12:11:32.393Z,99.99
2016-02-16T12:12:32.395Z,99.86
2016-02-16T12:13:32.351Z,99.96
2016-02-16T12:14:32.307Z,99.48
2016-02-16T12:15:32.279Z,99.86
2016-02-16T12:16:32.250Z,99.96
2016-02-16T12:17:32.221Z,99.99
2016-02-16T12:18:32.193Z,99.99
2016-02-16T12:19:32.148Z,99.96
2016-02-16T12:20:32.136Z,99.67
2016-02-16T12:21:32.091Z,99.99
2016-02-16T12:22:32.062Z,99.99
2016-02-16T12:23:32.051Z,99.77
2016-02-16T12:24:32.006Z,99.77
2016-02-16T12:25:31.978Z,99.48
2016-02-16T12:26:31.964Z,99.39
2016-02-16T12:27:31.919Z,99.77
2016-02-16T12:28:31.892Z,99.58
2016-02-16T12:29:31.863Z,99.01
2016-02-16T12:30:31.834Z,99.2
2016-02-16T12:31:31.806Z,98.91
2016-02-16T12:32:31.777Z,99.2
2016-02-16T12:33:31.749Z,99.29
2016-02-16T12:34:31.720Z,99.2
2016-02-16T12:35:31.691Z,99.29
2016-02-16T12:36:31.664Z,99.01
2016-02-16T12:37:31.650Z,99.39
2016-02-16T12:38:31.605Z,99.67
2016-02-16T12:39:31.577Z,99.29
2016-02-16T12:40:31.548Z,99.29
2016-02-16T12:41:31.551Z,99.67
2016-02-16T12:42:31.492Z,99.58
2016-02-16T12:43:31.463Z,99.2
2016-02-16T12:44:31.434Z,99.48
2016-02-16T12:45:31.407Z,99.77
2016-02-16T12:46:31.377Z,99.48
2016-02-16T12:47:31.348Z,99.48
2016-02-16T12:48:31.320Z,99.39
2016-02-16T12:49:31.292Z,99.86
2016-02-16T12:50:31.262Z,99.39
2016-02-16T12:51:31.235Z,99.39
2016-02-16T12:52:31.206Z,99.77
2016-02-16T12:53:31.178Z,99.86
2016-02-16T12:54:31.148Z,99.77